Time;durP1;ratioP1;P1;durP2;ratioP2;P2;SDS_P1;SDS_P2;PMS_P1;PMS_P2;Temp;Humidity;BMP_temperature;BMP_pressure;BME280_temperature;BME280_humidity;BME280_pressure;Samples;Min_cycle;Max_cycle;Signal;HPM_P1;HPM_P2
2022/01/04 00:00:27;;;;;;;2.83;2.50;;;10.60;99.90;;;;;;5050694;28;20230;-75
2022/01/04 00:02:55;;;;;;;6.10;2.60;;;10.60;99.90;;;;;;5049632;28;20210;-76
2022/01/04 00:05:22;;;;;;;7.93;7.13;;;10.60;99.90;;;;;;5052449;28;20195;-76
2022/01/04 00:07:49;;;;;;;8.17;7.67;;;10.60;99.90;;;;;;5051817;28;20305;-76
2022/01/04 00:10:21;;;;;;;5.50;5.20;;;10.60;99.90;;;;;;5051829;28;20215;-76
2022/01/04 00:15:33;;;;;;;10.27;9.53;;;10.50;99.90;;;;;;5043350;28;20198;-76
2022/01/04 00:18:00;;;;;;;10.20;9.60;;;10.50;99.90;;;;;;5050400;28;20210;-76
2022/01/04 00:20:27;;;;;;;10.80;9.87;;;10.60;99.90;;;;;;5050476;28;20611;-76
2022/01/04 00:22:54;;;;;;;11.87;10.97;;;10.50;99.90;;;;;;5053787;28;20218;-76
2022/01/04 00:25:22;;;;;;;7.20;6.77;;;10.50;99.90;;;;;;5051532;28;20210;-76
2022/01/04 00:27:49;;;;;;;5.87;5.30;;;10.50;99.90;;;;;;5050951;28;20202;-76
2022/01/04 00:30:16;;;;;;;10.00;9.40;;;10.50;99.90;;;;;;5050548;28;20210;-76
2022/01/04 00:32:43;;;;;;;8.03;7.40;;;10.50;99.90;;;;;;5051382;28;20202;-76
2022/01/04 00:35:10;;;;;;;11.30;10.60;;;10.50;99.90;;;;;;5048373;28;20566;-76
2022/01/04 00:37:37;;;;;;;11.53;10.73;;;10.50;99.90;;;;;;5046293;28;20187;-76
2022/01/04 00:40:06;;;;;;;10.53;9.93;;;10.50;99.90;;;;;;5048677;28;20202;-76
2022/01/04 00:42:34;;;;;;;10.60;10.00;;;10.50;99.90;;;;;;5059492;28;20195;-76
2022/01/04 00:45:01;;;;;;;11.13;10.40;;;10.50;99.90;;;;;;5050423;28;20584;-76
2022/01/04 00:47:40;;;;;;;10.60;10.00;;;10.50;99.90;;;;;;5049961;28;20204;-76
2022/01/04 00:50:07;;;;;;;10.80;10.20;;;10.50;99.90;;;;;;5046334;28;20227;-75
2022/01/04 00:52:34;;;;;;;10.63;9.93;;;10.50;99.90;;;;;;5050304;28;20249;-76
2022/01/04 00:55:01;;;;;;;10.23;9.63;;;10.50;99.90;;;;;;5051620;28;20191;-76
2022/01/04 00:57:28;;;;;;;11.00;10.30;;;10.40;99.90;;;;;;5048460;28;20191;-76
2022/01/04 00:59:56;;;;;;;10.20;9.67;;;10.40;99.90;;;;;;5050002;28;20210;-76
2022/01/04 01:02:23;;;;;;;10.37;9.70;;;10.40;99.90;;;;;;5046274;28;20239;-75
2022/01/04 01:04:50;;;;;;;5.50;5.20;;;10.40;99.90;;;;;;5051436;28;20206;-75
2022/01/04 01:07:16;;;;;;;7.17;6.67;;;10.50;99.90;;;;;;5044731;28;20679;-76
2022/01/04 01:09:57;;;;;;;11.00;10.40;;;10.50;99.90;;;;;;5037500;28;20234;-76
2022/01/04 01:12:24;;;;;;;2.70;2.50;;;10.50;99.90;;;;;;5048295;28;20216;-76
2022/01/04 01:14:51;;;;;;;4.87;4.50;;;10.60;99.90;;;;;;5049703;28;20313;-76
2022/01/04 01:17:19;;;;;;;4.50;4.20;;;10.50;99.90;;;;;;5048920;28;20211;-76
2022/01/04 01:19:46;;;;;;;11.90;11.10;;;10.60;99.90;;;;;;5049008;28;20206;-76
2022/01/04 01:22:13;;;;;;;9.27;8.60;;;10.60;99.90;;;;;;5051108;28;20227;-76
2022/01/04 01:24:40;;;;;;;3.33;3.03;;;10.60;99.90;;;;;;5048983;28;20609;-76
2022/01/04 01:27:07;;;;;;;7.67;7.23;;;10.60;99.90;;;;;;5049297;28;20230;-75
2022/01/04 01:29:34;;;;;;;6.43;5.83;;;10.60;99.90;;;;;;5043716;28;20196;-76
2022/01/04 01:32:02;;;;;;;6.50;6.10;;;10.60;99.90;;;;;;5051102;28;20215;-76
2022/01/04 01:34:31;;;;;;;5.83;5.03;;;10.50;99.90;;;;;;5045214;28;20192;-76
2022/01/04 01:36:57;;;;;;;12.57;11.67;;;10.50;99.90;;;;;;5047397;28;20574;-75
2022/01/04 01:39:25;;;;;;;5.60;5.10;;;10.50;99.90;;;;;;5053223;28;20199;-76
2022/01/04 01:41:52;;;;;;;9.57;8.93;;;10.50;99.90;;;;;;5052761;28;20219;-76
2022/01/04 01:44:19;;;;;;;4.57;4.17;;;10.50;99.90;;;;;;5054679;28;20195;-75
2022/01/04 01:46:46;;;;;;;7.70;7.20;;;10.50;99.90;;;;;;5053398;28;20582;-76
2022/01/04 01:49:13;;;;;;;9.40;8.80;;;10.50;99.90;;;;;;5054566;28;20679;-76
2022/01/04 01:51:42;;;;;;;8.63;8.13;;;10.50;99.90;;;;;;5052413;28;20215;-75
2022/01/04 01:54:09;;;;;;;4.23;3.93;;;10.40;99.90;;;;;;5049028;28;20195;-75
2022/01/04 01:56:35;;;;;;;5.27;4.87;;;10.40;99.90;;;;;;5054454;28;20684;-76
2022/01/04 01:59:06;;;;;;;5.13;4.73;;;10.40;99.90;;;;;;5054545;28;20199;-76
2022/01/04 02:01:33;;;;;;;6.60;6.07;;;10.40;99.90;;;;;;5046420;28;20227;-76
2022/01/04 02:04:00;;;;;;;11.10;10.30;;;10.40;99.90;;;;;;5045286;28;20200;-75
2022/01/04 02:06:29;;;;;;;3.67;3.37;;;10.40;99.90;;;;;;5050748;28;20254;-76
2022/01/04 02:08:57;;;;;;;7.50;6.90;;;10.40;99.90;;;;;;5049800;28;20196;-76
2022/01/04 02:11:28;;;;;;;6.03;5.53;;;10.40;99.90;;;;;;5049777;28;20632;-74
2022/01/04 02:13:55;;;;;;;7.63;7.23;;;10.40;99.90;;;;;;5054194;28;20195;-76
2022/01/04 02:16:22;;;;;;;9.00;8.50;;;10.50;99.90;;;;;;5045722;28;20203;-76
2022/01/04 02:18:49;;;;;;;5.57;5.17;;;10.50;99.90;;;;;;5051031;28;20191;-76
2022/01/04 02:21:18;;;;;;;7.07;6.57;;;10.50;99.90;;;;;;5044479;28;20215;-76
2022/01/04 02:23:45;;;;;;;5.93;5.63;;;10.50;99.90;;;;;;5048020;28;20572;-75
2022/01/04 02:26:12;;;;;;;2.73;2.53;;;10.50;99.90;;;;;;5049239;28;20217;-76
2022/01/04 02:28:40;;;;;;;3.87;3.57;;;10.50;99.90;;;;;;5043857;28;20712;-76
2022/01/04 02:31:06;;;;;;;2.80;2.60;;;10.50;99.90;;;;;;5051037;28;20237;-76
2022/01/04 02:33:33;;;;;;;3.87;3.67;;;10.50;99.90;;;;;;5053932;28;20210;-76
2022/01/04 02:36:00;;;;;;;2.90;2.70;;;10.50;99.90;;;;;;5051791;28;20183;-76
2022/01/04 02:38:28;;;;;;;2.67;2.57;;;10.60;99.90;;;;;;5053817;28;20187;-76
2022/01/04 02:40:55;;;;;;;2.70;2.50;;;10.60;99.90;;;;;;5053930;28;20218;-75
2022/01/04 02:43:22;;;;;;;2.63;2.50;;;10.60;99.90;;;;;;5054186;28;20191;-76
2022/01/04 02:45:49;;;;;;;2.73;2.53;;;10.60;99.90;;;;;;5053859;28;20567;-76
2022/01/04 02:48:16;;;;;;;4.07;2.97;;;10.60;99.90;;;;;;5053400;28;20191;-76
2022/01/04 02:50:42;;;;;;;3.10;2.80;;;10.70;99.90;;;;;;5051857;28;20255;-76
2022/01/04 02:53:09;;;;;;;3.03;2.73;;;10.70;99.90;;;;;;5052447;28;20202;-76
2022/01/04 02:55:38;;;;;;;3.73;3.50;;;10.70;99.90;;;;;;5045119;28;20200;-76
2022/01/04 02:58:04;;;;;;;2.97;2.77;;;10.70;99.90;;;;;;5053127;28;20210;-76
2022/01/04 03:00:34;;;;;;;4.60;4.30;;;10.70;99.90;;;;;;5049014;28;20227;-76
2022/01/04 03:03:01;;;;;;;4.70;4.40;;;10.80;99.90;;;;;;5045293;28;20203;-75
2022/01/04 03:05:28;;;;;;;4.53;4.33;;;10.80;99.90;;;;;;5046064;28;20199;-76
2022/01/04 03:07:55;;;;;;;4.40;4.10;;;10.80;99.90;;;;;;5048425;28;20203;-76
2022/01/04 03:10:22;;;;;;;4.10;3.80;;;10.80;99.90;;;;;;5042995;28;20224;-76
2022/01/04 03:12:50;;;;;;;4.60;4.20;;;10.80;99.90;;;;;;5050884;28;20222;-75
2022/01/04 03:15:17;;;;;;;9.23;8.63;;;10.80;99.90;;;;;;5051778;28;20207;-76
2022/01/04 03:17:44;;;;;;;4.70;3.30;;;10.80;99.90;;;;;;5051600;28;20629;-76
2022/01/04 03:20:12;;;;;;;2.70;2.50;;;10.80;99.90;;;;;;5044662;28;20224;-76
2022/01/04 03:22:39;;;;;;;2.60;2.50;;;10.80;99.90;;;;;;5043002;28;20204;-76
2022/01/04 03:25:08;;;;;;;3.00;2.80;;;10.80;99.90;;;;;;5048612;28;20672;-76
2022/01/04 03:27:35;;;;;;;2.73;2.53;;;10.80;99.90;;;;;;5044461;28;20192;-75
2022/01/04 03:30:05;;;;;;;2.67;2.50;;;10.80;99.90;;;;;;5044429;28;20188;-75
2022/01/04 03:32:32;;;;;;;2.80;2.60;;;10.70;99.90;;;;;;5050283;28;20800;-77
2022/01/04 03:34:59;;;;;;;3.07;2.87;;;10.70;99.90;;;;;;5043717;28;20204;-76
2022/01/04 03:37:26;;;;;;;3.87;3.67;;;10.70;99.90;;;;;;5047537;28;20208;-76
2022/01/04 03:39:52;;;;;;;4.57;4.17;;;10.70;99.90;;;;;;5047828;28;20195;-76
2022/01/04 03:42:19;;;;;;;3.03;2.80;;;10.70;99.90;;;;;;5052120;28;20218;-78
2022/01/04 03:44:46;;;;;;;2.90;2.70;;;10.60;99.90;;;;;;5047572;28;20207;-77
2022/01/04 03:47:15;;;;;;;3.13;2.90;;;10.60;99.90;;;;;;5043414;28;20485;-76
2022/01/04 03:49:42;;;;;;;3.70;2.70;;;10.60;99.90;;;;;;5048499;28;20621;-75
2022/01/04 03:52:12;;;;;;;4.80;4.50;;;10.60;99.90;;;;;;5049583;28;20226;-75
2022/01/04 03:54:39;;;;;;;5.23;4.93;;;10.60;99.90;;;;;;5048673;28;20245;-75
2022/01/04 03:57:06;;;;;;;7.40;6.90;;;10.60;99.90;;;;;;5051148;28;20695;-75
2022/01/04 03:59:33;;;;;;;8.13;7.63;;;10.60;99.90;;;;;;5042522;28;20218;-76
2022/01/04 04:02:00;;;;;;;10.30;9.70;;;10.60;99.90;;;;;;5059363;22;20659;-81
2022/01/04 04:04:28;;;;;;;4.90;4.60;;;10.50;99.90;;;;;;5047744;28;20658;-80
2022/01/04 04:06:55;;;;;;;5.17;4.87;;;10.50;99.90;;;;;;5042353;28;20203;-81
2022/01/04 04:09:22;;;;;;;4.50;4.20;;;10.50;99.90;;;;;;5036030;28;20746;-81
2022/01/04 04:11:49;;;;;;;3.23;2.77;;;10.60;99.90;;;;;;5051673;28;20222;-81
2022/01/04 04:14:16;;;;;;;3.03;2.70;;;10.60;99.90;;;;;;5055135;28;20236;-81
2022/01/04 04:16:43;;;;;;;3.00;2.80;;;10.60;99.90;;;;;;5061394;28;20198;-81
2022/01/04 04:19:10;;;;;;;8.40;7.90;;;10.60;99.90;;;;;;5056304;28;20199;-81
2022/01/04 04:21:38;;;;;;;3.30;3.00;;;10.60;99.90;;;;;;5052977;28;20593;-81
2022/01/04 04:24:06;;;;;;;2.97;2.77;;;10.60;99.90;;;;;;5052238;28;20225;-82
2022/01/04 04:26:32;;;;;;;11.43;10.83;;;10.60;99.90;;;;;;5062319;28;20675;-79
2022/01/04 04:28:59;;;;;;;11.00;10.40;;;10.60;99.90;;;;;;5040561;28;20673;-78
2022/01/04 04:31:26;;;;;;;5.57;5.17;;;10.50;99.90;;;;;;5038466;28;20689;-79
2022/01/04 04:33:53;;;;;;;5.07;4.67;;;10.50;99.90;;;;;;5058194;28;20199;-81
2022/01/04 04:36:20;;;;;;;9.50;8.90;;;10.40;99.90;;;;;;5047077;28;20200;-79
2022/01/04 04:38:48;;;;;;;7.43;6.93;;;10.40;99.90;;;;;;5053856;28;20200;-81
2022/01/04 04:41:15;;;;;;;5.77;5.37;;;10.40;99.90;;;;;;5054049;28;20219;-81
2022/01/04 04:43:42;;;;;;;6.80;6.40;;;10.40;99.90;;;;;;5060122;28;20195;-82
2022/01/04 04:46:10;;;;;;;5.80;5.40;;;10.30;99.90;;;;;;5058201;28;20203;-82
2022/01/04 04:48:37;;;;;;;8.43;7.90;;;10.30;99.90;;;;;;5056095;28;20204;-82
2022/01/04 04:51:03;;;;;;;7.47;7.00;;;10.30;99.90;;;;;;5055635;28;20218;-82
2022/01/04 04:53:30;;;;;;;6.43;5.90;;;10.30;99.90;;;;;;5055373;28;20840;-83
2022/01/04 04:55:58;;;;;;;6.10;5.73;;;10.30;99.90;;;;;;5048591;28;20199;-81
2022/01/04 04:58:25;;;;;;;9.53;8.83;;;10.20;99.90;;;;;;5045167;28;20197;-82
2022/01/04 05:00:52;;;;;;;10.03;9.33;;;10.20;99.90;;;;;;5059727;28;20191;-81
2022/01/04 05:03:19;;;;;;;3.87;3.23;;;10.20;99.90;;;;;;5049032;28;20209;-81
2022/01/04 05:05:46;;;;;;;11.67;10.97;;;10.20;99.90;;;;;;5047950;28;20259;-81
2022/01/04 05:08:13;;;;;;;4.50;4.20;;;10.20;99.90;;;;;;5043990;28;20200;-81
2022/01/04 05:10:42;;;;;;;10.70;10.10;;;10.20;99.90;;;;;;5057154;28;20642;-82
2022/01/04 05:13:10;;;;;;;11.00;10.40;;;10.10;99.90;;;;;;5055698;28;20230;-83
2022/01/04 05:15:37;;;;;;;10.90;10.30;;;10.10;99.90;;;;;;5059972;28;20203;-83
2022/01/04 05:18:04;;;;;;;11.00;10.30;;;10.10;99.90;;;;;;5064875;28;20195;-80
2022/01/04 05:20:31;;;;;;;10.70;10.10;;;10.10;99.90;;;;;;5066930;28;20191;-82
2022/01/04 05:22:58;;;;;;;11.00;10.30;;;10.20;99.90;;;;;;5049743;28;20218;-82
2022/01/04 05:25:25;;;;;;;11.20;10.60;;;10.20;99.90;;;;;;5059127;28;20242;-83
2022/01/04 05:27:51;;;;;;;11.27;10.47;;;10.20;99.90;;;;;;5065283;28;20250;-84
2022/01/04 05:30:20;;;;;;;11.50;10.80;;;10.20;99.90;;;;;;5071180;28;20209;-82
2022/01/04 05:32:46;;;;;;;11.13;10.43;;;10.20;99.90;;;;;;5051466;28;20228;-84
2022/01/04 05:35:13;;;;;;;11.40;10.80;;;10.20;99.90;;;;;;5049939;28;20203;-83
2022/01/04 05:37:40;;;;;;;10.60;10.00;;;10.20;99.90;;;;;;5050314;28;20195;-82
2022/01/04 05:40:08;;;;;;;11.00;10.40;;;10.20;99.90;;;;;;5048618;28;20197;-82
2022/01/04 05:42:35;;;;;;;11.20;10.60;;;10.20;99.90;;;;;;5043340;28;20207;-80
2022/01/04 05:45:02;;;;;;;11.20;10.60;;;10.30;99.90;;;;;;5049547;28;20204;-79
2022/01/04 05:47:30;;;;;;;10.90;10.30;;;10.30;99.90;;;;;;5063492;28;20187;-80
2022/01/04 05:49:58;;;;;;;11.50;10.90;;;10.30;99.90;;;;;;5050200;28;20195;-80
2022/01/04 05:52:25;;;;;;;10.97;10.37;;;10.30;99.90;;;;;;5048503;28;20281;-80
2022/01/04 05:54:52;;;;;;;11.57;10.97;;;10.30;99.90;;;;;;5049798;28;20203;-80
2022/01/04 05:57:19;;;;;;;11.20;10.60;;;10.30;99.90;;;;;;5052823;28;20206;-80
2022/01/04 05:59:46;;;;;;;12.20;11.40;;;10.30;99.90;;;;;;5042413;28;20191;-79
2022/01/04 06:02:13;;;;;;;11.87;11.10;;;10.30;99.90;;;;;;5053887;28;20245;-80
2022/01/04 06:04:42;;;;;;;11.60;11.00;;;10.40;99.90;;;;;;5047434;28;20454;-79
2022/01/04 06:07:08;;;;;;;11.80;11.20;;;10.40;99.90;;;;;;5055568;28;20191;-79
2022/01/04 06:09:42;;;;;;;12.10;11.40;;;10.40;99.90;;;;;;5044159;28;20216;-79
2022/01/04 06:14:51;;;;;;;12.30;11.50;;;10.40;99.90;;;;;;5046968;28;20195;-79
2022/01/04 06:17:19;;;;;;;12.30;11.60;;;10.40;99.90;;;;;;5045552;28;20200;-78
2022/01/04 06:19:47;;;;;;;12.47;11.77;;;10.50;99.90;;;;;;5052344;28;20202;-78
2022/01/04 06:22:14;;;;;;;12.20;11.60;;;10.50;99.90;;;;;;5052781;28;20226;-79
2022/01/04 06:24:41;;;;;;;12.00;11.33;;;10.50;99.90;;;;;;5047936;28;20719;-79
2022/01/04 06:27:10;;;;;;;12.17;11.57;;;10.50;99.90;;;;;;5035180;28;20226;-79
2022/01/04 06:29:38;;;;;;;12.70;12.00;;;10.60;99.90;;;;;;5035937;28;20238;-79
2022/01/04 06:32:06;;;;;;;12.70;12.00;;;10.60;99.90;;;;;;5044677;28;20219;-78
2022/01/04 06:34:34;;;;;;;12.30;11.60;;;10.60;99.90;;;;;;5042955;28;20270;-79
2022/01/04 06:37:03;;;;;;;12.07;11.47;;;10.60;99.90;;;;;;5048426;28;20571;-78
2022/01/04 06:39:30;;;;;;;12.00;11.40;;;10.60;99.90;;;;;;5044840;28;20282;-79
2022/01/04 06:41:57;;;;;;;12.20;11.60;;;10.60;99.90;;;;;;5044502;28;20230;-79
2022/01/04 06:44:24;;;;;;;11.80;11.20;;;10.60;99.90;;;;;;5046928;28;20206;-78
2022/01/04 06:46:52;;;;;;;11.30;10.70;;;10.70;99.90;;;;;;5048056;28;20195;-79
2022/01/04 06:49:19;;;;;;;12.40;11.70;;;10.70;99.90;;;;;;5043295;28;20195;-79
2022/01/04 06:51:48;;;;;;;11.90;11.30;;;10.70;99.90;;;;;;5049741;28;20211;-79
2022/01/04 06:54:18;;;;;;;11.10;10.50;;;10.70;99.90;;;;;;5048443;28;20206;-80
2022/01/04 06:56:46;;;;;;;10.13;9.50;;;10.80;99.90;;;;;;5040274;28;20192;-80
2022/01/04 06:59:13;;;;;;;12.13;11.53;;;10.80;99.90;;;;;;5037823;28;20193;-80
2022/01/04 07:01:40;;;;;;;9.97;9.47;;;10.80;99.90;;;;;;5042666;28;20719;-80
2022/01/04 07:04:07;;;;;;;9.83;9.33;;;10.90;99.90;;;;;;5052015;28;20207;-79
2022/01/04 07:06:34;;;;;;;11.07;10.47;;;10.90;99.90;;;;;;5047640;28;20648;-78
2022/01/04 07:09:03;;;;;;;11.73;10.93;;;11.00;99.90;;;;;;5044731;28;20195;-80
2022/01/04 07:11:31;;;;;;;10.00;9.40;;;11.00;99.90;;;;;;5052233;28;20251;-80
2022/01/04 07:13:58;;;;;;;9.47;8.97;;;11.00;99.90;;;;;;5041480;28;20203;-80
2022/01/04 07:16:25;;;;;;;11.10;10.50;;;11.10;99.90;;;;;;5045035;28;20208;-79
2022/01/04 07:18:53;;;;;;;11.90;11.20;;;11.10;99.90;;;;;;5047420;28;20210;-79
2022/01/04 07:21:21;;;;;;;12.30;11.60;;;11.10;99.90;;;;;;5052204;28;20220;-79
2022/01/04 07:23:49;;;;;;;12.83;12.13;;;11.20;99.90;;;;;;5038276;28;20205;-80
2022/01/04 07:26:17;;;;;;;13.00;12.30;;;11.20;99.90;;;;;;5048230;28;20203;-80
2022/01/04 07:28:48;;;;;;;3.13;2.93;;;11.20;99.90;;;;;;5042136;28;20714;-80
2022/01/04 07:31:16;;;;;;;2.90;2.70;;;11.20;99.90;;;;;;5050151;28;20224;-80
2022/01/04 07:33:44;;;;;;;2.50;2.40;;;11.20;99.90;;;;;;5037765;28;20208;-81
2022/01/04 07:36:11;;;;;;;2.70;2.60;;;11.20;99.90;;;;;;5043111;28;20235;-80
2022/01/04 07:38:39;;;;;;;2.70;2.60;;;11.20;99.90;;;;;;5038108;28;20200;-80
2022/01/04 07:41:06;;;;;;;2.67;2.50;;;11.20;99.90;;;;;;5040663;28;20200;-80
2022/01/04 07:43:34;;;;;;;2.77;2.57;;;11.20;99.90;;;;;;5045403;28;20203;-80
2022/01/04 07:46:02;;;;;;;3.27;2.83;;;11.20;99.90;;;;;;5045413;28;20200;-79
2022/01/04 07:48:29;;;;;;;3.00;2.70;;;11.30;99.90;;;;;;5045451;28;20196;-79
2022/01/04 07:50:58;;;;;;;2.70;2.50;;;11.20;99.90;;;;;;5043900;28;20234;-79
2022/01/04 07:53:25;;;;;;;3.27;3.00;;;11.20;99.90;;;;;;5052360;28;20223;-79
2022/01/04 07:55:53;;;;;;;3.10;2.80;;;11.20;99.90;;;;;;5052461;28;20219;-79
2022/01/04 07:58:19;;;;;;;3.17;2.87;;;11.20;99.90;;;;;;5042792;28;20202;-79
2022/01/04 08:00:46;;;;;;;3.00;2.70;;;11.20;99.90;;;;;;5047057;28;20571;-79
2022/01/04 08:03:15;;;;;;;2.90;2.70;;;11.30;99.90;;;;;;5039777;28;20230;-79
2022/01/04 08:05:42;;;;;;;2.93;2.73;;;11.30;99.90;;;;;;5045897;28;20208;-78
2022/01/04 08:08:09;;;;;;;2.80;2.60;;;11.30;99.90;;;;;;5056513;28;20220;-77
2022/01/04 08:10:36;;;;;;;2.67;2.47;;;11.30;99.90;;;;;;5049128;28;20249;-77
2022/01/04 08:13:03;;;;;;;2.90;2.70;;;11.30;99.90;;;;;;5036755;28;20327;-77
2022/01/04 08:15:30;;;;;;;2.87;2.67;;;11.30;99.90;;;;;;5051045;28;20200;-77
2022/01/04 08:17:57;;;;;;;2.60;2.50;;;11.30;99.90;;;;;;5046960;28;20565;-78
2022/01/04 08:20:26;;;;;;;2.70;2.50;;;11.30;99.90;;;;;;5048150;28;20240;-80
2022/01/04 08:22:53;;;;;;;2.60;2.50;;;11.40;99.90;;;;;;5045727;28;20228;-77
2022/01/04 08:25:20;;;;;;;2.97;2.77;;;11.40;99.90;;;;;;5053055;28;20191;-78
2022/01/04 08:27:47;;;;;;;2.60;2.50;;;11.50;99.90;;;;;;5045283;28;20290;-81
2022/01/04 08:30:15;;;;;;;2.77;2.67;;;11.50;99.90;;;;;;5045620;28;20211;-81
2022/01/04 08:32:42;;;;;;;3.30;3.00;;;11.60;99.90;;;;;;5040374;28;20230;-81
2022/01/04 08:35:10;;;;;;;2.97;2.77;;;11.70;99.90;;;;;;5054777;28;20195;-80
2022/01/04 08:37:39;;;;;;;3.30;2.80;;;11.70;99.90;;;;;;5049285;28;20196;-81
2022/01/04 08:40:08;;;;;;;2.93;2.73;;;11.80;99.90;;;;;;5047639;28;20196;-80
2022/01/04 08:42:36;;;;;;;2.57;2.47;;;11.80;99.90;;;;;;5047411;28;20265;-81
2022/01/04 08:45:04;;;;;;;2.80;2.60;;;11.90;99.90;;;;;;5046284;28;20201;-79
2022/01/04 08:47:31;;;;;;;3.47;2.73;;;11.90;99.90;;;;;;5047826;28;20204;-81
2022/01/04 08:49:59;;;;;;;3.10;2.70;;;11.90;99.90;;;;;;5048143;28;20192;-81
2022/01/04 08:52:27;;;;;;;3.10;2.83;;;11.90;99.90;;;;;;5047399;28;20217;-81
2022/01/04 08:54:55;;;;;;;2.80;2.60;;;12.00;99.90;;;;;;5051517;28;20196;-81
2022/01/04 08:57:23;;;;;;;4.13;3.80;;;12.00;99.90;;;;;;5046870;28;20203;-81
2022/01/04 08:59:54;;;;;;;5.53;5.23;;;12.00;99.90;;;;;;5041001;28;20212;-80
2022/01/04 09:02:22;;;;;;;4.37;3.10;;;12.10;99.90;;;;;;5051885;28;20254;-81
2022/01/04 09:04:48;;;;;;;5.90;5.50;;;12.10;99.90;;;;;;5038352;28;20258;-82
2022/01/04 09:07:16;;;;;;;5.40;5.10;;;12.10;99.90;;;;;;5049831;28;20202;-82
2022/01/04 09:09:44;;;;;;;5.80;5.40;;;12.10;99.90;;;;;;5046565;28;20207;-82
2022/01/04 09:12:13;;;;;;;4.00;3.80;;;12.10;99.90;;;;;;5055605;28;20212;-82
2022/01/04 09:14:55;;;;;;;4.53;4.23;;;12.20;99.90;;;;;;5053509;28;20201;-82
2022/01/04 09:20:10;;;;;;;5.43;5.03;;;12.20;99.90;;;;;;5042138;28;20563;-82
2022/01/04 09:22:37;;;;;;;8.97;8.47;;;12.30;99.90;;;;;;5057214;28;20218;-81
2022/01/04 09:25:06;;;;;;;3.73;3.30;;;12.30;99.90;;;;;;5055753;28;20216;-80
2022/01/04 09:27:35;;;;;;;5.13;4.83;;;12.30;99.90;;;;;;5058364;28;20205;-82
2022/01/04 09:30:04;;;;;;;9.17;8.57;;;12.30;99.90;;;;;;5049830;28;20201;-81
2022/01/04 09:32:31;;;;;;;7.87;7.47;;;12.30;99.90;;;;;;5071733;28;20220;-81
2022/01/04 09:34:58;;;;;;;3.27;2.93;;;12.30;99.90;;;;;;5056233;28;20208;-81
2022/01/04 09:37:26;;;;;;;5.57;5.17;;;12.30;99.90;;;;;;5046129;28;20194;-81
2022/01/04 09:39:52;;;;;;;3.47;3.10;;;12.30;99.90;;;;;;5071185;28;20577;-81
2022/01/04 09:42:20;;;;;;;2.90;2.70;;;12.30;99.90;;;;;;5044830;28;20217;-80
2022/01/04 09:44:50;;;;;;;3.63;2.87;;;12.30;99.90;;;;;;5047682;28;20551;-81
2022/01/04 09:47:17;;;;;;;8.40;7.90;;;12.20;99.90;;;;;;5053400;28;20205;-81
2022/01/04 09:49:44;;;;;;;9.07;8.47;;;12.30;99.90;;;;;;5053336;28;20196;-81
2022/01/04 09:52:15;;;;;;;6.20;5.80;;;12.30;99.90;;;;;;5043877;28;20229;-81
2022/01/04 09:54:42;;;;;;;3.00;2.80;;;12.20;99.90;;;;;;5046325;28;20214;-81
2022/01/04 09:57:09;;;;;;;3.87;3.67;;;12.20;99.90;;;;;;5052512;28;20206;-81
2022/01/04 09:59:36;;;;;;;5.27;4.77;;;12.20;99.90;;;;;;5055833;28;20228;-81
2022/01/04 10:02:14;;;;;;;5.10;4.60;;;12.20;99.90;;;;;;5091373;22;20232;-77
2022/01/04 10:04:41;;;;;;;3.83;3.53;;;12.30;99.90;;;;;;5047241;28;20198;-80
2022/01/04 10:07:09;;;;;;;6.17;5.67;;;12.30;99.90;;;;;;5049741;28;20208;-77
2022/01/04 10:09:44;;;;;;;6.40;5.83;;;12.30;99.90;;;;;;5044743;28;20262;-77
2022/01/04 10:12:12;;;;;;;7.77;7.20;;;12.40;99.90;;;;;;5039357;28;20222;-77
2022/01/04 10:14:41;;;;;;;4.77;4.30;;;12.40;99.90;;;;;;5036851;28;20194;-77
2022/01/04 10:17:09;;;;;;;8.60;8.10;;;12.40;99.90;;;;;;5042704;28;20195;-77
2022/01/04 10:19:39;;;;;;;13.50;12.50;;;12.50;99.90;;;;;;5041466;28;20207;-77
2022/01/04 10:22:12;;;;;;;13.43;12.63;;;12.50;99.90;;;;;;5043630;28;20582;-77
2022/01/04 10:24:40;;;;;;;13.53;12.77;;;12.50;99.90;;;;;;5031786;28;20233;-77
2022/01/04 10:27:26;;;;;;;14.20;13.40;;;12.50;99.90;;;;;;5044488;28;20189;-77
2022/01/04 10:30:23;;;;;;;13.73;12.93;;;12.60;99.90;;;;;;5044165;28;20577;-78
2022/01/04 10:32:54;;;;;;;13.33;12.60;;;12.60;99.90;;;;;;5037099;28;20213;-77
2022/01/04 10:35:28;;;;;;;13.30;12.50;;;12.70;99.90;;;;;;5048832;28;20780;-77
2022/01/04 10:37:57;;;;;;;14.30;13.47;;;12.80;99.90;;;;;;5041588;28;20197;-77
2022/01/04 10:40:26;;;;;;;13.00;12.20;;;12.80;99.90;;;;;;5044779;28;20597;-77
2022/01/04 10:42:53;;;;;;;13.03;12.30;;;13.00;99.90;;;;;;5044117;28;20252;-77
2022/01/04 10:45:37;;;;;;;13.90;12.90;;;13.00;99.90;;;;;;5043971;28;20204;-77
2022/01/04 10:48:12;;;;;;;13.20;12.47;;;13.10;99.90;;;;;;5044537;28;20199;-77
2022/01/04 10:50:42;;;;;;;13.70;12.90;;;13.20;99.90;;;;;;5044986;28;20194;-77
2022/01/04 10:53:16;;;;;;;12.43;11.73;;;13.20;99.90;;;;;;5042579;28;20225;-77
2022/01/04 10:55:44;;;;;;;13.73;12.83;;;13.20;99.90;;;;;;5042511;28;20195;-78
2022/01/04 10:58:21;;;;;;;13.30;12.50;;;13.30;99.90;;;;;;5046672;28;20210;-78
2022/01/04 11:00:54;;;;;;;13.37;12.57;;;13.20;99.90;;;;;;5041626;28;20207;-77
2022/01/04 11:03:25;;;;;;;13.10;12.40;;;13.20;99.90;;;;;;5045943;28;20722;-78
2022/01/04 11:05:59;;;;;;;13.13;12.33;;;13.20;99.90;;;;;;5042350;28;20631;-79
2022/01/04 11:08:26;;;;;;;12.97;12.27;;;13.20;99.90;;;;;;5034786;28;20196;-80
2022/01/04 11:10:53;;;;;;;13.00;12.20;;;13.10;99.90;;;;;;5039199;28;20194;-78
2022/01/04 11:13:20;;;;;;;15.27;14.27;;;13.10;99.90;;;;;;5042376;28;20227;-80
2022/01/04 11:15:47;;;;;;;13.90;13.10;;;13.10;99.90;;;;;;5050491;28;20190;-77
2022/01/04 11:18:14;;;;;;;13.20;12.40;;;13.10;99.90;;;;;;5042557;28;20206;-79
2022/01/04 11:20:42;;;;;;;13.83;13.03;;;13.10;99.90;;;;;;5040590;28;20644;-78
2022/01/04 11:23:11;;;;;;;13.67;12.87;;;13.10;99.90;;;;;;5047095;28;20219;-78
2022/01/04 11:25:38;;;;;;;13.40;12.60;;;13.10;99.90;;;;;;5040532;28;20203;-78
2022/01/04 11:28:08;;;;;;;13.13;12.20;;;13.10;99.90;;;;;;5049383;28;20201;-77
2022/01/04 11:30:41;;;;;;;13.23;12.33;;;13.00;99.90;;;;;;5041945;28;20676;-78
2022/01/04 11:33:14;;;;;;;12.97;12.20;;;13.00;99.90;;;;;;5039562;28;20231;-76
2022/01/04 11:35:41;;;;;;;12.97;12.17;;;13.00;99.90;;;;;;5035447;28;20209;-76
2022/01/04 11:38:08;;;;;;;12.83;12.03;;;13.00;99.90;;;;;;5032911;28;20207;-76
2022/01/04 11:40:41;;;;;;;12.40;11.70;;;12.90;99.90;;;;;;5051441;28;20193;-76
2022/01/04 11:43:26;;;;;;;13.20;12.27;;;12.80;99.90;;;;;;5026889;28;20227;-77
2022/01/04 11:45:53;;;;;;;12.90;12.00;;;12.80;99.90;;;;;;5034072;28;20491;-77
2022/01/04 11:48:32;;;;;;;12.50;11.70;;;12.70;99.90;;;;;;5033412;28;20252;-77
2022/01/04 11:51:00;;;;;;;12.80;11.90;;;12.70;99.90;;;;;;5031745;28;20203;-77
2022/01/04 11:53:27;;;;;;;12.80;12.00;;;12.70;99.90;;;;;;5045678;28;20221;-77
2022/01/04 11:55:57;;;;;;;12.13;11.43;;;12.60;99.90;;;;;;5040764;28;20195;-77
2022/01/04 11:58:26;;;;;;;12.80;11.90;;;12.60;99.90;;;;;;5044728;28;20229;-77
2022/01/04 12:01:00;;;;;;;13.10;12.20;;;12.60;99.90;;;;;;5041482;28;20205;-77
2022/01/04 12:03:39;;;;;;;13.03;12.17;;;12.60;99.90;;;;;;5042403;28;20701;-77
2022/01/04 12:06:07;;;;;;;12.37;11.67;;;12.60;99.90;;;;;;5040551;28;20202;-77
2022/01/04 12:08:36;;;;;;;12.40;11.63;;;12.60;99.90;;;;;;5041020;28;20190;-77
2022/01/04 12:11:18;;;;;;;12.27;11.53;;;12.60;99.90;;;;;;5041721;28;20289;-77
2022/01/04 12:13:51;;;;;;;12.73;11.87;;;12.60;99.90;;;;;;5039087;28;20216;-77
2022/01/04 12:16:31;;;;;;;12.47;11.70;;;12.70;99.90;;;;;;5041015;28;20206;-77
2022/01/04 12:18:58;;;;;;;12.50;11.70;;;12.70;99.90;;;;;;5041925;28;20202;-77
2022/01/04 12:21:37;;;;;;;13.30;12.50;;;12.70;99.90;;;;;;5040800;28;20201;-77
2022/01/04 12:24:05;;;;;;;12.57;11.77;;;12.60;99.90;;;;;;5039561;28;20198;-77
2022/01/04 12:26:34;;;;;;;12.80;11.93;;;12.60;99.90;;;;;;5037152;28;20190;-76
2022/01/04 12:29:21;;;;;;;12.87;12.00;;;12.60;99.90;;;;;;5035872;28;20205;-77
2022/01/04 12:31:50;;;;;;;12.60;11.77;;;12.50;99.90;;;;;;5038275;28;20221;-77
2022/01/04 12:34:29;;;;;;;12.73;12.03;;;12.60;99.90;;;;;;5042369;28;20227;-77
2022/01/04 12:36:56;;;;;;;12.80;12.10;;;12.50;99.90;;;;;;5039605;28;20194;-77
2022/01/04 12:39:32;;;;;;;12.80;12.10;;;12.50;99.90;;;;;;5045226;28;20201;-76
2022/01/04 12:42:00;;;;;;;12.83;12.10;;;12.50;99.90;;;;;;5048474;28;20212;-76
2022/01/04 12:44:29;;;;;;;12.83;12.13;;;12.50;99.90;;;;;;5040707;28;20187;-77
2022/01/04 12:46:57;;;;;;;12.33;11.53;;;12.50;99.90;;;;;;5040776;28;20218;-77
2022/01/04 12:49:26;;;;;;;12.90;12.20;;;12.50;99.90;;;;;;5040412;28;20199;-77
2022/01/04 12:51:54;;;;;;;13.37;12.37;;;12.50;99.90;;;;;;5031521;28;20222;-77